sensor_id;sensor_type;location;lat;lon;timestamp;P1;durP1;ratioP1;P2;durP2;ratioP2
23814;SDS011;12088;53.078;8.720;2022-10-15T00:02:11;2.93;;;2.13;;
23814;SDS011;12088;53.078;8.720;2022-10-15T00:04:36;2.87;;;2.67;;
23814;SDS011;12088;53.078;8.720;2022-10-15T00:07:02;5.17;;;3.77;;
23814;SDS011;12088;53.078;8.720;2022-10-15T00:09:28;6.00;;;3.47;;
23814;SDS011;12088;53.078;8.720;2022-10-15T00:11:53;3.57;;;3.23;;
23814;SDS011;12088;53.078;8.720;2022-10-15T00:14:19;3.30;;;2.33;;
23814;SDS011;12088;53.078;8.720;2022-10-15T00:16:45;3.47;;;2.97;;
23814;SDS011;12088;53.078;8.720;2022-10-15T00:19:11;4.00;;;3.70;;
23814;SDS011;12088;53.078;8.720;2022-10-15T00:21:36;7.50;;;2.70;;
23814;SDS011;12088;53.078;8.720;2022-10-15T00:24:02;5.27;;;3.57;;
23814;SDS011;12088;53.078;8.720;2022-10-15T00:26:28;5.97;;;3.53;;
23814;SDS011;12088;53.078;8.720;2022-10-15T00:28:59;3.80;;;3.43;;
23814;SDS011;12088;53.078;8.720;2022-10-15T00:31:26;3.93;;;3.50;;
23814;SDS011;12088;53.078;8.720;2022-10-15T00:33:53;3.73;;;3.43;;
23814;SDS011;12088;53.078;8.720;2022-10-15T00:36:25;5.23;;;3.90;;
23814;SDS011;12088;53.078;8.720;2022-10-15T00:38:53;3.80;;;3.50;;
23814;SDS011;12088;53.078;8.720;2022-10-15T00:41:21;6.87;;;3.13;;
23814;SDS011;12088;53.078;8.720;2022-10-15T00:46:17;3.30;;;2.93;;
23814;SDS011;12088;53.078;8.720;2022-10-15T00:48:47;3.27;;;3.03;;
23814;SDS011;12088;53.078;8.720;2022-10-15T00:51:16;7.37;;;4.57;;
23814;SDS011;12088;53.078;8.720;2022-10-15T00:53:45;5.73;;;4.40;;
23814;SDS011;12088;53.078;8.720;2022-10-15T00:56:12;5.70;;;4.50;;
23814;SDS011;12088;53.078;8.720;2022-10-15T00:58:39;4.93;;;4.47;;
23814;SDS011;12088;53.078;8.720;2022-10-15T01:01:06;3.47;;;3.03;;
23814;SDS011;12088;53.078;8.720;2022-10-15T01:03:31;5.73;;;5.07;;
23814;SDS011;12088;53.078;8.720;2022-10-15T01:05:59;7.20;;;5.27;;
23814;SDS011;12088;53.078;8.720;2022-10-15T01:08:26;3.17;;;2.97;;
23814;SDS011;12088;53.078;8.720;2022-10-15T01:10:59;5.37;;;3.53;;
23814;SDS011;12088;53.078;8.720;2022-10-15T01:19:03;6.80;;;4.80;;
23814;SDS011;12088;53.078;8.720;2022-10-15T01:21:55;3.83;;;3.40;;
23814;SDS011;12088;53.078;8.720;2022-10-15T01:27:26;4.53;;;3.57;;
23814;SDS011;12088;53.078;8.720;2022-10-15T01:30:16;8.03;;;5.33;;
23814;SDS011;12088;53.078;8.720;2022-10-15T01:33:22;5.20;;;4.80;;
23814;SDS011;12088;53.078;8.720;2022-10-15T01:37:12;4.83;;;4.37;;
23814;SDS011;12088;53.078;8.720;2022-10-15T01:39:30;7.07;;;5.00;;
23814;SDS011;12088;53.078;8.720;2022-10-15T01:42:16;5.80;;;3.90;;
23814;SDS011;12088;53.078;8.720;2022-10-15T01:44:52;7.23;;;5.10;;
23814;SDS011;12088;53.078;8.720;2022-10-15T01:47:32;7.10;;;4.47;;
23814;SDS011;12088;53.078;8.720;2022-10-15T01:50:03;9.57;;;5.83;;
23814;SDS011;12088;53.078;8.720;2022-10-15T01:52:32;10.43;;;6.37;;
23814;SDS011;12088;53.078;8.720;2022-10-15T01:55:01;15.70;;;5.33;;
23814;SDS011;12088;53.078;8.720;2022-10-15T01:57:30;10.80;;;5.77;;
23814;SDS011;12088;53.078;8.720;2022-10-15T01:59:57;3.57;;;3.27;;
23814;SDS011;12088;53.078;8.720;2022-10-15T02:02:23;12.97;;;6.13;;
23814;SDS011;12088;53.078;8.720;2022-10-15T02:04:49;6.50;;;4.37;;
23814;SDS011;12088;53.078;8.720;2022-10-15T02:07:18;4.97;;;4.27;;
23814;SDS011;12088;53.078;8.720;2022-10-15T02:15:16;7.40;;;5.53;;
23814;SDS011;12088;53.078;8.720;2022-10-15T02:23:29;5.70;;;5.13;;
23814;SDS011;12088;53.078;8.720;2022-10-15T02:26:06;6.00;;;4.53;;
23814;SDS011;12088;53.078;8.720;2022-10-15T02:28:35;5.67;;;4.07;;
23814;SDS011;12088;53.078;8.720;2022-10-15T02:31:03;4.33;;;3.93;;
23814;SDS011;12088;53.078;8.720;2022-10-15T02:33:31;4.13;;;3.27;;
23814;SDS011;12088;53.078;8.720;2022-10-15T02:35:58;6.37;;;5.77;;
23814;SDS011;12088;53.078;8.720;2022-10-15T02:38:25;4.83;;;4.10;;
23814;SDS011;12088;53.078;8.720;2022-10-15T02:40:55;4.93;;;4.50;;
23814;SDS011;12088;53.078;8.720;2022-10-15T02:43:21;3.90;;;3.50;;
23814;SDS011;12088;53.078;8.720;2022-10-15T02:45:47;8.37;;;4.90;;
23814;SDS011;12088;53.078;8.720;2022-10-15T02:48:13;8.13;;;3.43;;
23814;SDS011;12088;53.078;8.720;2022-10-15T02:50:39;4.83;;;4.17;;
23814;SDS011;12088;53.078;8.720;2022-10-15T02:53:04;15.97;;;5.00;;
23814;SDS011;12088;53.078;8.720;2022-10-15T02:55:30;8.37;;;6.03;;
23814;SDS011;12088;53.078;8.720;2022-10-15T02:57:56;6.03;;;4.87;;
23814;SDS011;12088;53.078;8.720;2022-10-15T03:00:21;4.70;;;3.97;;
23814;SDS011;12088;53.078;8.720;2022-10-15T03:02:47;10.20;;;5.80;;
23814;SDS011;12088;53.078;8.720;2022-10-15T03:05:13;3.90;;;2.97;;
23814;SDS011;12088;53.078;8.720;2022-10-15T03:07:38;9.67;;;5.10;;
23814;SDS011;12088;53.078;8.720;2022-10-15T03:10:04;11.73;;;7.47;;
23814;SDS011;12088;53.078;8.720;2022-10-15T03:12:30;8.37;;;5.90;;
23814;SDS011;12088;53.078;8.720;2022-10-15T03:14:56;10.73;;;6.20;;
23814;SDS011;12088;53.078;8.720;2022-10-15T03:17:21;10.40;;;5.57;;
23814;SDS011;12088;53.078;8.720;2022-10-15T03:19:47;6.10;;;5.50;;
23814;SDS011;12088;53.078;8.720;2022-10-15T03:22:12;11.70;;;5.83;;
23814;SDS011;12088;53.078;8.720;2022-10-15T03:24:38;6.83;;;6.07;;
23814;SDS011;12088;53.078;8.720;2022-10-15T03:27:03;5.83;;;4.60;;
23814;SDS011;12088;53.078;8.720;2022-10-15T03:29:29;6.53;;;5.27;;
23814;SDS011;12088;53.078;8.720;2022-10-15T03:31:55;5.40;;;4.10;;
23814;SDS011;12088;53.078;8.720;2022-10-15T03:34:20;6.13;;;5.63;;
23814;SDS011;12088;53.078;8.720;2022-10-15T03:36:46;5.63;;;4.90;;
23814;SDS011;12088;53.078;8.720;2022-10-15T03:39:11;8.03;;;6.17;;
23814;SDS011;12088;53.078;8.720;2022-10-15T03:41:37;9.07;;;7.33;;
23814;SDS011;12088;53.078;8.720;2022-10-15T03:44:04;8.37;;;6.37;;
23814;SDS011;12088;53.078;8.720;2022-10-15T03:46:31;7.73;;;5.03;;
23814;SDS011;12088;53.078;8.720;2022-10-15T03:48:57;7.87;;;4.80;;
23814;SDS011;12088;53.078;8.720;2022-10-15T03:51:22;4.33;;;3.93;;
23814;SDS011;12088;53.078;8.720;2022-10-15T03:53:48;7.27;;;5.53;;
23814;SDS011;12088;53.078;8.720;2022-10-15T03:56:14;8.80;;;6.13;;
23814;SDS011;12088;53.078;8.720;2022-10-15T03:58:39;10.57;;;5.60;;
23814;SDS011;12088;53.078;8.720;2022-10-15T04:01:14;9.90;;;5.30;;
23814;SDS011;12088;53.078;8.720;2022-10-15T04:03:41;7.63;;;5.17;;
23814;SDS011;12088;53.078;8.720;2022-10-15T04:06:07;6.43;;;5.23;;
23814;SDS011;12088;53.078;8.720;2022-10-15T04:08:32;5.30;;;4.80;;
23814;SDS011;12088;53.078;8.720;2022-10-15T04:10:58;10.00;;;5.07;;
23814;SDS011;12088;53.078;8.720;2022-10-15T04:13:25;8.37;;;4.07;;
23814;SDS011;12088;53.078;8.720;2022-10-15T04:15:52;7.27;;;4.67;;
23814;SDS011;12088;53.078;8.720;2022-10-15T04:18:17;6.17;;;4.73;;
23814;SDS011;12088;53.078;8.720;2022-10-15T04:20:47;4.27;;;3.80;;
23814;SDS011;12088;53.078;8.720;2022-10-15T04:23:13;10.63;;;4.87;;
23814;SDS011;12088;53.078;8.720;2022-10-15T04:25:39;7.73;;;4.97;;
23814;SDS011;12088;53.078;8.720;2022-10-15T04:28:05;5.83;;;5.03;;
23814;SDS011;12088;53.078;8.720;2022-10-15T04:30:30;7.03;;;4.67;;
23814;SDS011;12088;53.078;8.720;2022-10-15T04:32:56;7.07;;;5.40;;
23814;SDS011;12088;53.078;8.720;2022-10-15T04:35:22;8.80;;;5.37;;
23814;SDS011;12088;53.078;8.720;2022-10-15T04:37:47;11.77;;;4.50;;
23814;SDS011;12088;53.078;8.720;2022-10-15T04:40:13;6.80;;;4.27;;
23814;SDS011;12088;53.078;8.720;2022-10-15T04:42:40;9.07;;;5.20;;
23814;SDS011;12088;53.078;8.720;2022-10-15T04:45:05;5.23;;;3.97;;
23814;SDS011;12088;53.078;8.720;2022-10-15T04:47:32;9.77;;;6.27;;
23814;SDS011;12088;53.078;8.720;2022-10-15T04:49:57;4.67;;;3.53;;
23814;SDS011;12088;53.078;8.720;2022-10-15T04:52:23;6.87;;;4.27;;
23814;SDS011;12088;53.078;8.720;2022-10-15T04:54:48;12.67;;;6.43;;
23814;SDS011;12088;53.078;8.720;2022-10-15T04:57:14;4.43;;;3.77;;
23814;SDS011;12088;53.078;8.720;2022-10-15T04:59:40;5.70;;;5.10;;
23814;SDS011;12088;53.078;8.720;2022-10-15T05:02:07;5.10;;;4.30;;
23814;SDS011;12088;53.078;8.720;2022-10-15T05:04:33;5.83;;;3.83;;
23814;SDS011;12088;53.078;8.720;2022-10-15T05:06:58;4.57;;;3.70;;
23814;SDS011;12088;53.078;8.720;2022-10-15T05:09:24;5.73;;;4.47;;
23814;SDS011;12088;53.078;8.720;2022-10-15T05:11:50;6.17;;;4.93;;
23814;SDS011;12088;53.078;8.720;2022-10-15T05:14:15;9.27;;;5.07;;
23814;SDS011;12088;53.078;8.720;2022-10-15T05:16:41;8.70;;;4.43;;
23814;SDS011;12088;53.078;8.720;2022-10-15T05:19:08;10.80;;;5.63;;
23814;SDS011;12088;53.078;8.720;2022-10-15T05:21:35;11.50;;;5.57;;
23814;SDS011;12088;53.078;8.720;2022-10-15T05:24:01;9.97;;;5.27;;
23814;SDS011;12088;53.078;8.720;2022-10-15T05:26:29;4.03;;;3.67;;
23814;SDS011;12088;53.078;8.720;2022-10-15T05:28:56;8.90;;;5.27;;
23814;SDS011;12088;53.078;8.720;2022-10-15T05:31:23;5.63;;;4.40;;
23814;SDS011;12088;53.078;8.720;2022-10-15T05:33:51;6.30;;;4.30;;
23814;SDS011;12088;53.078;8.720;2022-10-15T05:36:22;10.67;;;6.13;;
23814;SDS011;12088;53.078;8.720;2022-10-15T05:38:50;5.97;;;5.20;;
23814;SDS011;12088;53.078;8.720;2022-10-15T05:41:17;8.73;;;5.70;;
23814;SDS011;12088;53.078;8.720;2022-10-15T05:43:50;10.87;;;5.80;;
23814;SDS011;12088;53.078;8.720;2022-10-15T05:46:16;6.63;;;5.63;;
23814;SDS011;12088;53.078;8.720;2022-10-15T05:48:46;9.33;;;7.23;;
23814;SDS011;12088;53.078;8.720;2022-10-15T05:51:16;13.30;;;6.37;;
23814;SDS011;12088;53.078;8.720;2022-10-15T05:53:42;6.30;;;4.67;;
23814;SDS011;12088;53.078;8.720;2022-10-15T05:56:10;10.80;;;5.03;;
23814;SDS011;12088;53.078;8.720;2022-10-15T05:58:36;6.63;;;5.10;;
23814;SDS011;12088;53.078;8.720;2022-10-15T06:01:03;6.43;;;5.17;;
23814;SDS011;12088;53.078;8.720;2022-10-15T06:03:30;6.20;;;5.53;;
23814;SDS011;12088;53.078;8.720;2022-10-15T06:05:56;6.67;;;5.53;;
23814;SDS011;12088;53.078;8.720;2022-10-15T06:08:22;11.63;;;6.17;;
23814;SDS011;12088;53.078;8.720;2022-10-15T06:10:47;7.73;;;6.17;;
23814;SDS011;12088;53.078;8.720;2022-10-15T06:13:14;11.30;;;4.80;;
23814;SDS011;12088;53.078;8.720;2022-10-15T06:15:40;8.03;;;4.07;;
23814;SDS011;12088;53.078;8.720;2022-10-15T06:18:07;12.77;;;5.43;;
23814;SDS011;12088;53.078;8.720;2022-10-15T06:20:34;9.87;;;4.40;;
23814;SDS011;12088;53.078;8.720;2022-10-15T06:23:01;11.17;;;5.87;;
23814;SDS011;12088;53.078;8.720;2022-10-15T06:25:27;6.60;;;5.27;;
23814;SDS011;12088;53.078;8.720;2022-10-15T06:27:53;9.40;;;5.97;;
23814;SDS011;12088;53.078;8.720;2022-10-15T06:30:19;13.50;;;7.20;;
23814;SDS011;12088;53.078;8.720;2022-10-15T06:32:48;4.23;;;3.83;;
23814;SDS011;12088;53.078;8.720;2022-10-15T06:35:15;11.20;;;5.53;;
23814;SDS011;12088;53.078;8.720;2022-10-15T06:37:41;12.33;;;6.57;;
23814;SDS011;12088;53.078;8.720;2022-10-15T06:40:07;8.23;;;4.37;;
23814;SDS011;12088;53.078;8.720;2022-10-15T06:42:34;7.90;;;5.23;;
23814;SDS011;12088;53.078;8.720;2022-10-15T06:44:59;9.23;;;4.87;;
23814;SDS011;12088;53.078;8.720;2022-10-15T06:47:25;15.47;;;3.73;;
23814;SDS011;12088;53.078;8.720;2022-10-15T06:49:51;7.07;;;4.93;;
23814;SDS011;12088;53.078;8.720;2022-10-15T06:52:16;11.33;;;7.13;;
23814;SDS011;12088;53.078;8.720;2022-10-15T06:54:42;7.50;;;5.13;;
23814;SDS011;12088;53.078;8.720;2022-10-15T06:57:07;7.83;;;5.13;;
23814;SDS011;12088;53.078;8.720;2022-10-15T06:59:33;14.90;;;5.57;;
23814;SDS011;12088;53.078;8.720;2022-10-15T07:01:58;15.73;;;6.40;;
23814;SDS011;12088;53.078;8.720;2022-10-15T07:04:24;11.40;;;6.07;;
23814;SDS011;12088;53.078;8.720;2022-10-15T07:06:50;9.93;;;6.53;;
23814;SDS011;12088;53.078;8.720;2022-10-15T07:09:15;7.17;;;3.63;;
23814;SDS011;12088;53.078;8.720;2022-10-15T07:11:41;7.43;;;6.50;;
23814;SDS011;12088;53.078;8.720;2022-10-15T07:14:06;7.50;;;5.57;;
23814;SDS011;12088;53.078;8.720;2022-10-15T07:16:32;11.90;;;6.03;;
23814;SDS011;12088;53.078;8.720;2022-10-15T07:18:58;9.77;;;4.73;;
23814;SDS011;12088;53.078;8.720;2022-10-15T07:21:24;5.93;;;4.83;;
23814;SDS011;12088;53.078;8.720;2022-10-15T07:23:49;12.77;;;7.57;;
23814;SDS011;12088;53.078;8.720;2022-10-15T07:26:16;8.43;;;4.93;;
23814;SDS011;12088;53.078;8.720;2022-10-15T07:28:41;9.30;;;5.10;;
23814;SDS011;12088;53.078;8.720;2022-10-15T07:31:07;18.43;;;5.87;;
23814;SDS011;12088;53.078;8.720;2022-10-15T07:33:33;5.73;;;3.93;;
23814;SDS011;12088;53.078;8.720;2022-10-15T07:36:03;16.80;;;6.63;;
23814;SDS011;12088;53.078;8.720;2022-10-15T07:38:33;9.67;;;6.23;;
23814;SDS011;12088;53.078;8.720;2022-10-15T07:41:00;10.70;;;5.77;;
23814;SDS011;12088;53.078;8.720;2022-10-15T07:43:27;9.87;;;6.00;;
23814;SDS011;12088;53.078;8.720;2022-10-15T07:45:53;13.60;;;7.60;;
23814;SDS011;12088;53.078;8.720;2022-10-15T07:48:19;11.30;;;6.93;;
23814;SDS011;12088;53.078;8.720;2022-10-15T07:50:45;7.67;;;5.30;;
23814;SDS011;12088;53.078;8.720;2022-10-15T07:53:10;9.37;;;5.80;;
23814;SDS011;12088;53.078;8.720;2022-10-15T07:55:36;9.93;;;5.20;;
23814;SDS011;12088;53.078;8.720;2022-10-15T07:58:02;14.33;;;6.47;;
23814;SDS011;12088;53.078;8.720;2022-10-15T08:00:31;10.27;;;5.40;;
23814;SDS011;12088;53.078;8.720;2022-10-15T08:02:57;10.83;;;6.50;;
23814;SDS011;12088;53.078;8.720;2022-10-15T08:05:23;13.43;;;5.90;;
23814;SDS011;12088;53.078;8.720;2022-10-15T08:07:48;14.30;;;7.83;;
23814;SDS011;12088;53.078;8.720;2022-10-15T08:10:14;16.10;;;7.20;;
23814;SDS011;12088;53.078;8.720;2022-10-15T08:12:40;12.77;;;4.80;;
23814;SDS011;12088;53.078;8.720;2022-10-15T08:15:06;15.97;;;6.30;;
23814;SDS011;12088;53.078;8.720;2022-10-15T08:17:32;11.63;;;6.40;;
23814;SDS011;12088;53.078;8.720;2022-10-15T08:19:58;19.40;;;5.90;;
23814;SDS011;12088;53.078;8.720;2022-10-15T08:22:23;14.87;;;5.80;;
23814;SDS011;12088;53.078;8.720;2022-10-15T08:24:49;13.10;;;5.97;;
23814;SDS011;12088;53.078;8.720;2022-10-15T08:27:16;11.70;;;6.20;;
23814;SDS011;12088;53.078;8.720;2022-10-15T08:29:41;17.50;;;5.63;;
23814;SDS011;12088;53.078;8.720;2022-10-15T08:32:07;9.17;;;4.97;;
23814;SDS011;12088;53.078;8.720;2022-10-15T08:34:32;10.00;;;4.67;;
23814;SDS011;12088;53.078;8.720;2022-10-15T08:36:58;16.93;;;7.00;;
23814;SDS011;12088;53.078;8.720;2022-10-15T08:39:24;12.77;;;5.07;;
23814;SDS011;12088;53.078;8.720;2022-10-15T08:41:53;8.35;;;5.00;;
23814;SDS011;12088;53.078;8.720;2022-10-15T08:44:26;9.60;;;5.03;;
23814;SDS011;12088;53.078;8.720;2022-10-15T08:47:03;11.35;;;4.60;;
23814;SDS011;12088;53.078;8.720;2022-10-15T08:49:43;9.00;;;4.82;;
23814;SDS011;12088;53.078;8.720;2022-10-15T08:52:32;12.50;;;4.33;;
23814;SDS011;12088;53.078;8.720;2022-10-15T08:55:08;6.37;;;4.77;;
23814;SDS011;12088;53.078;8.720;2022-10-15T08:57:50;11.55;;;4.03;;
23814;SDS011;12088;53.078;8.720;2022-10-15T09:00:27;14.75;;;4.75;;
23814;SDS011;12088;53.078;8.720;2022-10-15T09:03:02;11.13;;;4.67;;
23814;SDS011;12088;53.078;8.720;2022-10-15T09:10:53;6.13;;;3.63;;
23814;SDS011;12088;53.078;8.720;2022-10-15T09:13:39;7.22;;;4.05;;
23814;SDS011;12088;53.078;8.720;2022-10-15T09:19:20;7.37;;;3.17;;
23814;SDS011;12088;53.078;8.720;2022-10-15T09:21:48;4.67;;;3.47;;
23814;SDS011;12088;53.078;8.720;2022-10-15T09:24:21;10.60;;;4.13;;
23814;SDS011;12088;53.078;8.720;2022-10-15T09:29:20;6.07;;;3.30;;
23814;SDS011;12088;53.078;8.720;2022-10-15T09:34:39;4.23;;;2.80;;
23814;SDS011;12088;53.078;8.720;2022-10-15T09:37:15;4.67;;;2.07;;
23814;SDS011;12088;53.078;8.720;2022-10-15T09:40:02;7.83;;;2.73;;
23814;SDS011;12088;53.078;8.720;2022-10-15T09:42:33;5.97;;;3.27;;
23814;SDS011;12088;53.078;8.720;2022-10-15T09:45:09;4.70;;;2.83;;
23814;SDS011;12088;53.078;8.720;2022-10-15T09:47:38;6.87;;;4.00;;
23814;SDS011;12088;53.078;8.720;2022-10-15T09:50:06;6.30;;;4.20;;
23814;SDS011;12088;53.078;8.720;2022-10-15T09:58:38;9.10;;;3.95;;
23814;SDS011;12088;53.078;8.720;2022-10-15T10:01:16;6.68;;;3.72;;
23814;SDS011;12088;53.078;8.720;2022-10-15T10:03:50;12.82;;;4.78;;
23814;SDS011;12088;53.078;8.720;2022-10-15T10:06:17;9.98;;;3.67;;
23814;SDS011;12088;53.078;8.720;2022-10-15T10:11:14;7.85;;;3.67;;
23814;SDS011;12088;53.078;8.720;2022-10-15T10:16:07;4.38;;;2.95;;
23814;SDS011;12088;53.078;8.720;2022-10-15T10:18:34;7.72;;;3.85;;
23814;SDS011;12088;53.078;8.720;2022-10-15T10:21:04;3.03;;;2.45;;
23814;SDS011;12088;53.078;8.720;2022-10-15T10:23:43;7.78;;;3.97;;
23814;SDS011;12088;53.078;8.720;2022-10-15T10:26:09;3.92;;;3.30;;
23814;SDS011;12088;53.078;8.720;2022-10-15T10:28:38;5.28;;;3.25;;
23814;SDS011;12088;53.078;8.720;2022-10-15T10:31:26;6.85;;;3.53;;
23814;SDS011;12088;53.078;8.720;2022-10-15T10:33:54;4.97;;;2.88;;
23814;SDS011;12088;53.078;8.720;2022-10-15T10:36:27;8.02;;;3.20;;
23814;SDS011;12088;53.078;8.720;2022-10-15T10:44:34;7.28;;;3.75;;
23814;SDS011;12088;53.078;8.720;2022-10-15T10:47:00;6.43;;;4.75;;
23814;SDS011;12088;53.078;8.720;2022-10-15T10:49:39;4.60;;;3.85;;
23814;SDS011;12088;53.078;8.720;2022-10-15T10:52:20;4.60;;;3.30;;
23814;SDS011;12088;53.078;8.720;2022-10-15T10:57:57;4.25;;;3.00;;
23814;SDS011;12088;53.078;8.720;2022-10-15T11:03:49;5.03;;;3.60;;
23814;SDS011;12088;53.078;8.720;2022-10-15T11:06:00;8.48;;;4.32;;
23814;SDS011;12088;53.078;8.720;2022-10-15T11:11:17;11.13;;;5.20;;
23814;SDS011;12088;53.078;8.720;2022-10-15T11:17:09;6.07;;;4.28;;
23814;SDS011;12088;53.078;8.720;2022-10-15T11:22:18;8.00;;;4.32;;
23814;SDS011;12088;53.078;8.720;2022-10-15T11:25:01;6.72;;;4.97;;
23814;SDS011;12088;53.078;8.720;2022-10-15T11:28:04;7.70;;;3.95;;
23814;SDS011;12088;53.078;8.720;2022-10-15T11:31:00;7.85;;;5.25;;
23814;SDS011;12088;53.078;8.720;2022-10-15T11:38:57;6.65;;;4.28;;
23814;SDS011;12088;53.078;8.720;2022-10-15T11:41:58;5.82;;;3.42;;
23814;SDS011;12088;53.078;8.720;2022-10-15T11:47:27;7.80;;;3.90;;
23814;SDS011;12088;53.078;8.720;2022-10-15T11:58:38;15.30;;;3.88;;
23814;SDS011;12088;53.078;8.720;2022-10-15T12:01:19;5.88;;;3.45;;
23814;SDS011;12088;53.078;8.720;2022-10-15T12:04:05;5.15;;;3.42;;
23814;SDS011;12088;53.078;8.720;2022-10-15T12:06:39;5.13;;;2.83;;
23814;SDS011;12088;53.078;8.720;2022-10-15T12:09:14;6.10;;;3.25;;
23814;SDS011;12088;53.078;8.720;2022-10-15T12:11:52;6.55;;;3.80;;
23814;SDS011;12088;53.078;8.720;2022-10-15T12:14:45;4.82;;;2.75;;
23814;SDS011;12088;53.078;8.720;2022-10-15T12:17:38;5.88;;;2.10;;
23814;SDS011;12088;53.078;8.720;2022-10-15T12:20:11;4.50;;;2.83;;
23814;SDS011;12088;53.078;8.720;2022-10-15T12:23:01;7.38;;;2.55;;
23814;SDS011;12088;53.078;8.720;2022-10-15T12:28:02;4.22;;;2.50;;
23814;SDS011;12088;53.078;8.720;2022-10-15T12:30:30;6.97;;;2.70;;
23814;SDS011;12088;53.078;8.720;2022-10-15T12:32:58;9.05;;;3.30;;
23814;SDS011;12088;53.078;8.720;2022-10-15T12:35:37;2.25;;;2.00;;
23814;SDS011;12088;53.078;8.720;2022-10-15T12:38:08;4.70;;;2.58;;
23814;SDS011;12088;53.078;8.720;2022-10-15T12:41:10;4.82;;;2.63;;
23814;SDS011;12088;53.078;8.720;2022-10-15T12:43:42;7.47;;;2.00;;
23814;SDS011;12088;53.078;8.720;2022-10-15T12:46:11;5.38;;;2.97;;
23814;SDS011;12088;53.078;8.720;2022-10-15T12:48:39;2.85;;;2.58;;
23814;SDS011;12088;53.078;8.720;2022-10-15T12:53:44;4.78;;;3.10;;
23814;SDS011;12088;53.078;8.720;2022-10-15T12:58:42;5.88;;;3.75;;
23814;SDS011;12088;53.078;8.720;2022-10-15T13:03:40;4.78;;;3.13;;
23814;SDS011;12088;53.078;8.720;2022-10-15T13:06:21;5.88;;;2.97;;
23814;SDS011;12088;53.078;8.720;2022-10-15T13:11:29;3.67;;;2.60;;
23814;SDS011;12088;53.078;8.720;2022-10-15T13:13:58;3.60;;;2.70;;
23814;SDS011;12088;53.078;8.720;2022-10-15T13:16:47;9.68;;;3.95;;
23814;SDS011;12088;53.078;8.720;2022-10-15T13:19:18;3.47;;;2.72;;
23814;SDS011;12088;53.078;8.720;2022-10-15T13:21:53;4.95;;;2.58;;
23814;SDS011;12088;53.078;8.720;2022-10-15T13:24:21;4.38;;;3.28;;
23814;SDS011;12088;53.078;8.720;2022-10-15T13:26:51;7.00;;;3.15;;
23814;SDS011;12088;53.078;8.720;2022-10-15T13:29:22;5.20;;;3.03;;
23814;SDS011;12088;53.078;8.720;2022-10-15T13:31:49;6.00;;;4.05;;
23814;SDS011;12088;53.078;8.720;2022-10-15T13:34:27;3.65;;;2.83;;
23814;SDS011;12088;53.078;8.720;2022-10-15T13:36:55;3.50;;;2.70;;
23814;SDS011;12088;53.078;8.720;2022-10-15T13:42:04;8.73;;;3.97;;
23814;SDS011;12088;53.078;8.720;2022-10-15T13:44:36;6.37;;;2.90;;
23814;SDS011;12088;53.078;8.720;2022-10-15T13:47:08;6.33;;;3.37;;
23814;SDS011;12088;53.078;8.720;2022-10-15T13:49:48;5.47;;;2.83;;
23814;SDS011;12088;53.078;8.720;2022-10-15T13:52:14;5.73;;;3.87;;
23814;SDS011;12088;53.078;8.720;2022-10-15T13:54:39;4.13;;;3.10;;
23814;SDS011;12088;53.078;8.720;2022-10-15T13:57:09;6.77;;;3.53;;
23814;SDS011;12088;53.078;8.720;2022-10-15T13:59:40;6.60;;;4.00;;
23814;SDS011;12088;53.078;8.720;2022-10-15T14:02:10;4.57;;;2.57;;
23814;SDS011;12088;53.078;8.720;2022-10-15T14:04:36;9.33;;;4.20;;
23814;SDS011;12088;53.078;8.720;2022-10-15T14:07:03;5.20;;;3.23;;
23814;SDS011;12088;53.078;8.720;2022-10-15T14:09:44;6.27;;;3.43;;
23814;SDS011;12088;53.078;8.720;2022-10-15T14:12:11;10.63;;;4.63;;
23814;SDS011;12088;53.078;8.720;2022-10-15T14:14:41;4.57;;;2.80;;
23814;SDS011;12088;53.078;8.720;2022-10-15T14:17:12;4.33;;;3.27;;
23814;SDS011;12088;53.078;8.720;2022-10-15T14:19:54;5.53;;;3.67;;
23814;SDS011;12088;53.078;8.720;2022-10-15T14:22:22;5.90;;;4.13;;
23814;SDS011;12088;53.078;8.720;2022-10-15T14:24:50;8.63;;;4.30;;
23814;SDS011;12088;53.078;8.720;2022-10-15T14:27:19;6.90;;;3.23;;
23814;SDS011;12088;53.078;8.720;2022-10-15T14:29:55;3.63;;;3.17;;
23814;SDS011;12088;53.078;8.720;2022-10-15T14:32:29;8.17;;;3.97;;
23814;SDS011;12088;53.078;8.720;2022-10-15T14:35:28;10.60;;;4.13;;
23814;SDS011;12088;53.078;8.720;2022-10-15T14:37:58;4.07;;;3.40;;
23814;SDS011;12088;53.078;8.720;2022-10-15T14:40:25;6.97;;;3.83;;
23814;SDS011;12088;53.078;8.720;2022-10-15T14:47:49;6.93;;;4.70;;
23814;SDS011;12088;53.078;8.720;2022-10-15T14:50:17;3.87;;;2.60;;
23814;SDS011;12088;53.078;8.720;2022-10-15T14:52:44;3.80;;;3.27;;
23814;SDS011;12088;53.078;8.720;2022-10-15T14:57:40;4.27;;;2.67;;
23814;SDS011;12088;53.078;8.720;2022-10-15T15:02:50;4.77;;;3.97;;
23814;SDS011;12088;53.078;8.720;2022-10-15T15:05:18;5.77;;;2.90;;
23814;SDS011;12088;53.078;8.720;2022-10-15T15:07:46;5.93;;;2.87;;
23814;SDS011;12088;53.078;8.720;2022-10-15T15:10:14;2.50;;;2.03;;
23814;SDS011;12088;53.078;8.720;2022-10-15T15:12:41;25.53;;;2.73;;
23814;SDS011;12088;53.078;8.720;2022-10-15T15:15:14;2.77;;;2.47;;
23814;SDS011;12088;53.078;8.720;2022-10-15T15:17:41;3.77;;;2.87;;
23814;SDS011;12088;53.078;8.720;2022-10-15T15:20:08;4.23;;;2.17;;
23814;SDS011;12088;53.078;8.720;2022-10-15T15:22:34;3.37;;;2.00;;
23814;SDS011;12088;53.078;8.720;2022-10-15T15:25:01;6.23;;;2.53;;
23814;SDS011;12088;53.078;8.720;2022-10-15T15:27:34;5.37;;;4.10;;
23814;SDS011;12088;53.078;8.720;2022-10-15T15:30:02;3.37;;;1.87;;
23814;SDS011;12088;53.078;8.720;2022-10-15T15:32:32;5.70;;;2.37;;
23814;SDS011;12088;53.078;8.720;2022-10-15T15:34:57;3.53;;;2.27;;
23814;SDS011;12088;53.078;8.720;2022-10-15T15:37:24;2.53;;;1.97;;
23814;SDS011;12088;53.078;8.720;2022-10-15T15:39:51;3.07;;;2.60;;
23814;SDS011;12088;53.078;8.720;2022-10-15T15:42:17;3.63;;;2.33;;
23814;SDS011;12088;53.078;8.720;2022-10-15T15:44:45;2.60;;;1.97;;
23814;SDS011;12088;53.078;8.720;2022-10-15T15:47:11;3.70;;;2.80;;
23814;SDS011;12088;53.078;8.720;2022-10-15T15:49:37;1.63;;;1.53;;
23814;SDS011;12088;53.078;8.720;2022-10-15T15:52:04;3.73;;;2.73;;
23814;SDS011;12088;53.078;8.720;2022-10-15T15:54:32;2.57;;;2.33;;
23814;SDS011;12088;53.078;8.720;2022-10-15T15:56:58;3.03;;;2.13;;
23814;SDS011;12088;53.078;8.720;2022-10-15T15:59:24;1.40;;;1.23;;
23814;SDS011;12088;53.078;8.720;2022-10-15T16:01:49;1.47;;;1.23;;
23814;SDS011;12088;53.078;8.720;2022-10-15T16:04:15;2.80;;;1.43;;
23814;SDS011;12088;53.078;8.720;2022-10-15T16:06:41;2.50;;;2.03;;
23814;SDS011;12088;53.078;8.720;2022-10-15T16:09:07;1.40;;;1.30;;
23814;SDS011;12088;53.078;8.720;2022-10-15T16:11:33;2.17;;;1.30;;
23814;SDS011;12088;53.078;8.720;2022-10-15T16:14:00;1.63;;;1.53;;
23814;SDS011;12088;53.078;8.720;2022-10-15T16:16:26;8.03;;;1.10;;
23814;SDS011;12088;53.078;8.720;2022-10-15T16:18:52;1.80;;;1.47;;
23814;SDS011;12088;53.078;8.720;2022-10-15T16:21:21;2.27;;;1.60;;
23814;SDS011;12088;53.078;8.720;2022-10-15T16:23:50;1.77;;;1.47;;
23814;SDS011;12088;53.078;8.720;2022-10-15T16:26:16;1.20;;;1.10;;
23814;SDS011;12088;53.078;8.720;2022-10-15T16:28:42;1.80;;;0.73;;
23814;SDS011;12088;53.078;8.720;2022-10-15T16:31:12;0.90;;;0.90;;
23814;SDS011;12088;53.078;8.720;2022-10-15T16:33:39;1.40;;;0.77;;
23814;SDS011;12088;53.078;8.720;2022-10-15T16:36:05;2.10;;;1.30;;
23814;SDS011;12088;53.078;8.720;2022-10-15T16:38:30;0.80;;;0.73;;
23814;SDS011;12088;53.078;8.720;2022-10-15T16:40:56;1.23;;;1.13;;
23814;SDS011;12088;53.078;8.720;2022-10-15T16:43:21;1.90;;;1.73;;
23814;SDS011;12088;53.078;8.720;2022-10-15T16:45:54;0.87;;;0.87;;
23814;SDS011;12088;53.078;8.720;2022-10-15T16:48:21;0.80;;;0.80;;
23814;SDS011;12088;53.078;8.720;2022-10-15T16:50:46;1.00;;;0.90;;